createdAt,value
2018-06-30T00:01:21.432Z,5.20
2018-06-30T00:03:55.048Z,5.60
2018-06-30T00:06:25.140Z,4.90
2018-06-30T00:08:54.334Z,5.70
2018-06-30T00:11:22.998Z,6.13
2018-06-30T00:13:52.171Z,4.53
2018-06-30T00:16:20.848Z,8.47
2018-06-30T00:24:45.642Z,11.43
2018-06-30T00:27:19.527Z,9.97
2018-06-30T00:29:48.265Z,6.73
2018-06-30T00:32:16.992Z,9.00
2018-06-30T00:34:45.599Z,11.23
2018-06-30T00:37:14.117Z,6.07
2018-06-30T00:39:42.854Z,4.60
2018-06-30T00:42:11.658Z,5.50
2018-06-30T00:44:40.296Z,5.50
2018-06-30T00:47:08.785Z,5.00
2018-06-30T00:49:38.473Z,4.57
2018-06-30T00:52:07.682Z,5.07
2018-06-30T00:54:36.495Z,5.57
2018-06-30T00:57:05.100Z,8.37
2018-06-30T00:59:33.694Z,11.70
2018-06-30T01:02:02.355Z,7.43
2018-06-30T01:04:30.915Z,5.80
2018-06-30T01:06:59.446Z,5.40
2018-06-30T01:09:28.130Z,5.37
2018-06-30T01:11:56.771Z,4.90
2018-06-30T01:14:26.080Z,5.03
2018-06-30T01:16:54.758Z,5.63
2018-06-30T01:19:23.514Z,5.70
2018-06-30T01:21:52.937Z,5.97
2018-06-30T01:24:22.210Z,6.17
2018-06-30T01:26:51.490Z,4.70
2018-06-30T01:29:20.214Z,5.33
2018-06-30T01:31:48.785Z,11.80
2018-06-30T01:34:18.026Z,8.33
2018-06-30T01:36:46.763Z,13.47
2018-06-30T01:39:15.322Z,5.83
2018-06-30T01:41:43.922Z,5.37
2018-06-30T01:44:12.507Z,6.03
2018-06-30T01:46:41.138Z,6.70
2018-06-30T01:49:09.869Z,5.17
2018-06-30T01:51:39.139Z,4.93
2018-06-30T01:54:07.776Z,5.43
2018-06-30T01:56:36.339Z,4.73
2018-06-30T01:59:04.859Z,4.93
2018-06-30T02:01:33.332Z,8.23
2018-06-30T02:04:01.833Z,11.03
2018-06-30T02:06:30.897Z,13.67
2018-06-30T02:09:00.246Z,7.87
2018-06-30T02:11:28.734Z,7.73
2018-06-30T02:13:57.230Z,8.63
2018-06-30T02:16:25.798Z,9.47
2018-06-30T02:18:54.343Z,13.57
2018-06-30T02:21:23.522Z,12.83
2018-06-30T02:23:52.166Z,12.90
2018-06-30T02:26:20.832Z,11.37
2018-06-30T02:28:49.345Z,12.47
2018-06-30T02:31:18.378Z,9.47
2018-06-30T02:33:46.866Z,6.60
2018-06-30T02:36:15.369Z,6.40
2018-06-30T02:38:44.060Z,6.37
2018-06-30T02:41:12.533Z,5.47
2018-06-30T02:43:41.029Z,7.93
2018-06-30T02:46:09.620Z,6.70
2018-06-30T02:48:38.250Z,6.27
2018-06-30T02:51:06.766Z,5.70
2018-06-30T02:53:35.354Z,7.90
2018-06-30T02:56:04.663Z,8.00
2018-06-30T02:58:33.182Z,6.23
2018-06-30T03:01:02.113Z,5.13
2018-06-30T03:03:31.378Z,4.27
2018-06-30T03:05:59.959Z,5.60
2018-06-30T03:08:28.979Z,7.03
2018-06-30T03:10:57.724Z,7.23
2018-06-30T03:13:26.289Z,6.17
2018-06-30T03:15:54.807Z,6.33
2018-06-30T03:18:23.311Z,4.93
2018-06-30T03:20:51.849Z,8.13
2018-06-30T03:23:20.438Z,8.87
2018-06-30T03:25:49.618Z,12.37
2018-06-30T03:28:18.952Z,7.27
2018-06-30T03:30:47.447Z,5.60
2018-06-30T03:33:16.070Z,6.67
2018-06-30T03:35:44.729Z,4.93
2018-06-30T03:38:13.204Z,4.17
2018-06-30T03:40:41.748Z,6.03
2018-06-30T03:43:10.431Z,9.90
2018-06-30T03:45:38.973Z,8.47
2018-06-30T03:48:07.597Z,7.37
2018-06-30T03:50:36.101Z,13.73
2018-06-30T03:53:04.633Z,13.70
2018-06-30T03:55:33.187Z,13.93
2018-06-30T03:58:01.719Z,12.57
2018-06-30T04:00:30.181Z,13.40
2018-06-30T04:02:58.735Z,13.33
2018-06-30T04:05:27.230Z,6.70
2018-06-30T04:07:55.751Z,14.30
2018-06-30T04:10:24.913Z,14.87
2018-06-30T04:12:53.854Z,9.03
2018-06-30T04:15:22.447Z,6.43
2018-06-30T04:17:51.013Z,10.83
2018-06-30T04:20:19.607Z,6.60
2018-06-30T04:22:48.854Z,5.33
2018-06-30T04:25:17.359Z,11.23
2018-06-30T04:27:46.010Z,7.03
2018-06-30T04:30:14.636Z,6.00
2018-06-30T04:32:43.140Z,6.17
2018-06-30T04:35:11.658Z,14.40
2018-06-30T04:37:40.889Z,7.20
2018-06-30T04:40:09.492Z,6.93
2018-06-30T04:42:38.798Z,6.13
2018-06-30T04:45:07.306Z,5.33
2018-06-30T04:47:35.889Z,7.40
2018-06-30T04:50:04.954Z,6.67
2018-06-30T04:52:33.597Z,5.47
2018-06-30T04:55:02.667Z,6.97
2018-06-30T04:57:31.226Z,6.37
2018-06-30T04:59:59.681Z,5.47
2018-06-30T05:02:28.313Z,6.43
2018-06-30T05:04:56.935Z,6.97
2018-06-30T05:07:25.419Z,8.00
2018-06-30T05:09:54.398Z,7.07
2018-06-30T05:12:22.938Z,7.00
2018-06-30T05:14:51.454Z,11.00
2018-06-30T05:17:20.040Z,8.23
2018-06-30T05:19:49.317Z,11.13
2018-06-30T05:22:17.856Z,7.87
2018-06-30T05:24:46.465Z,7.40
2018-06-30T05:27:15.052Z,6.13
2018-06-30T05:29:43.570Z,13.23
2018-06-30T05:32:12.173Z,6.90
2018-06-30T05:34:40.763Z,9.57
2018-06-30T05:37:09.802Z,7.20
2018-06-30T05:39:39.269Z,7.03
2018-06-30T05:42:07.793Z,8.73
2018-06-30T05:44:36.344Z,12.70
2018-06-30T05:47:04.878Z,8.20
2018-06-30T05:49:33.605Z,7.80
2018-06-30T05:52:02.089Z,7.57
2018-06-30T05:54:30.676Z,13.60
2018-06-30T05:56:59.342Z,9.33
2018-06-30T05:59:28.177Z,11.37
2018-06-30T06:01:56.697Z,12.73
2018-06-30T06:04:25.425Z,8.97
2018-06-30T06:06:53.978Z,7.93
2018-06-30T06:09:22.693Z,10.33
2018-06-30T06:11:51.233Z,6.50
2018-06-30T06:14:19.707Z,16.93
2018-06-30T06:16:48.418Z,16.73
2018-06-30T06:19:16.977Z,11.93
2018-06-30T06:21:45.529Z,12.57
2018-06-30T06:24:14.256Z,9.57
2018-06-30T06:26:42.917Z,8.03
2018-06-30T06:29:11.458Z,13.17
2018-06-30T06:31:40.144Z,16.10
2018-06-30T06:34:08.785Z,20.00
2018-06-30T06:36:37.311Z,21.97
2018-06-30T06:39:08.144Z,13.13
2018-06-30T06:41:37.018Z,17.57
2018-06-30T06:44:05.634Z,11.20
2018-06-30T06:46:34.198Z,19.40
2018-06-30T06:49:02.805Z,14.47
2018-06-30T06:51:31.360Z,16.37
2018-06-30T06:53:59.931Z,19.57
2018-06-30T06:56:28.591Z,13.07
2018-06-30T06:58:57.545Z,16.10
2018-06-30T07:01:26.898Z,17.57
2018-06-30T07:03:55.490Z,12.33
2018-06-30T07:06:24.043Z,17.27
2018-06-30T07:08:53.469Z,14.73
2018-06-30T07:11:22.076Z,9.20
2018-06-30T07:13:51.546Z,14.83
2018-06-30T07:16:20.092Z,14.13
2018-06-30T07:18:48.641Z,16.23
2018-06-30T07:21:17.792Z,15.20
2018-06-30T07:23:46.479Z,9.87
2018-06-30T07:26:15.613Z,14.13
2018-06-30T07:28:44.145Z,12.73
2018-06-30T07:31:12.716Z,16.30
2018-06-30T07:33:41.307Z,16.97
2018-06-30T07:36:09.838Z,14.17
2018-06-30T07:38:38.404Z,11.83
2018-06-30T07:41:07.714Z,16.07
2018-06-30T07:43:36.939Z,15.63
2018-06-30T07:46:05.566Z,15.17
2018-06-30T07:48:33.773Z,14.47
2018-06-30T07:51:02.316Z,14.13
2018-06-30T07:53:30.840Z,13.73
2018-06-30T07:56:00.195Z,12.47
2018-06-30T07:58:28.694Z,8.80
2018-06-30T08:00:57.292Z,13.57
2018-06-30T08:03:25.889Z,9.43
2018-06-30T08:05:55.185Z,13.43
2018-06-30T08:08:23.758Z,12.73
2018-06-30T08:10:52.298Z,11.10
2018-06-30T08:13:20.997Z,12.70
2018-06-30T08:15:49.589Z,12.17
2018-06-30T08:18:18.158Z,11.87
2018-06-30T08:20:46.738Z,11.63
2018-06-30T08:23:15.293Z,11.03
2018-06-30T08:25:43.931Z,9.57
2018-06-30T08:28:13.263Z,11.00
2018-06-30T08:30:42.503Z,10.98
2018-06-30T08:33:11.769Z,9.48
2018-06-30T08:35:40.383Z,8.78
2018-06-30T08:38:09.023Z,10.75
2018-06-30T08:40:37.605Z,9.73
2018-06-30T08:43:06.082Z,8.98
2018-06-30T08:45:34.703Z,9.30
2018-06-30T08:48:04.134Z,8.50
2018-06-30T08:50:33.447Z,9.68
2018-06-30T08:53:01.960Z,7.33
2018-06-30T08:55:30.487Z,8.35
2018-06-30T08:57:59.138Z,9.55
2018-06-30T09:00:27.664Z,7.95
2018-06-30T09:02:56.134Z,6.72
2018-06-30T09:05:25.541Z,9.53
2018-06-30T09:07:54.043Z,6.58
2018-06-30T09:10:22.659Z,4.58
2018-06-30T09:12:51.850Z,6.75
2018-06-30T09:15:20.459Z,6.28
2018-06-30T09:17:49.088Z,6.25
2018-06-30T09:20:17.744Z,5.67
2018-06-30T09:22:46.228Z,6.10
2018-06-30T09:25:15.510Z,6.28
2018-06-30T09:27:44.047Z,5.35
2018-06-30T09:30:12.800Z,6.40
2018-06-30T09:32:41.454Z,5.90
2018-06-30T09:35:09.983Z,5.67
2018-06-30T09:37:38.550Z,4.97
2018-06-30T09:40:07.115Z,5.03
2018-06-30T09:42:35.646Z,5.03
2018-06-30T09:45:04.233Z,5.15
2018-06-30T09:47:33.552Z,4.62
2018-06-30T09:50:02.026Z,4.22
2018-06-30T09:52:30.682Z,4.28
2018-06-30T09:54:59.270Z,4.60
2018-06-30T09:57:27.839Z,4.37
2018-06-30T09:59:56.343Z,4.30
2018-06-30T10:02:25.411Z,4.37
2018-06-30T10:04:54.070Z,4.00
2018-06-30T10:07:22.592Z,4.37
2018-06-30T10:09:51.870Z,4.20
2018-06-30T10:12:20.574Z,4.08
2018-06-30T10:14:49.727Z,3.92
2018-06-30T10:17:18.285Z,3.95
2018-06-30T10:19:46.852Z,4.22
2018-06-30T10:22:15.341Z,4.60
2018-06-30T10:24:44.014Z,4.10
2018-06-30T10:27:12.662Z,4.47
2018-06-30T10:29:41.189Z,4.10
2018-06-30T10:32:09.749Z,3.70
2018-06-30T10:34:38.265Z,3.98
2018-06-30T10:37:07.719Z,3.75
2018-06-30T10:39:36.326Z,3.37
2018-06-30T10:42:04.877Z,2.55
2018-06-30T10:44:34.410Z,3.45
2018-06-30T10:47:02.898Z,3.90
2018-06-30T10:49:31.411Z,4.03
2018-06-30T10:52:00.000Z,3.45
2018-06-30T10:54:28.576Z,2.87
2018-06-30T10:56:57.120Z,3.77
2018-06-30T10:59:26.346Z,3.47
2018-06-30T11:01:54.962Z,3.92
2018-06-30T11:04:23.459Z,3.60
2018-06-30T11:06:52.026Z,3.50
2018-06-30T11:09:20.604Z,3.62
2018-06-30T11:11:49.169Z,4.05
2018-06-30T11:14:17.689Z,3.75
2018-06-30T11:16:46.168Z,4.05
2018-06-30T11:19:14.897Z,3.17
2018-06-30T11:21:44.146Z,3.67
2018-06-30T11:24:12.713Z,3.10
2018-06-30T11:26:41.438Z,3.20
2018-06-30T11:29:11.073Z,3.10
2018-06-30T11:31:39.606Z,3.02
2018-06-30T11:34:08.142Z,2.80
2018-06-30T11:36:36.795Z,3.50
2018-06-30T11:39:08.828Z,3.27
2018-06-30T11:41:37.453Z,3.25
2018-06-30T11:44:06.073Z,3.25
2018-06-30T11:46:34.608Z,2.77
2018-06-30T11:49:03.178Z,3.12
2018-06-30T11:51:31.674Z,2.98
2018-06-30T11:54:00.345Z,3.30
2018-06-30T11:56:29.614Z,3.67
2018-06-30T11:58:58.328Z,3.27
2018-06-30T12:01:26.883Z,3.22
2018-06-30T12:03:56.356Z,3.55
2018-06-30T12:06:24.893Z,3.85
2018-06-30T12:08:53.455Z,2.95
2018-06-30T12:11:22.080Z,2.40
2018-06-30T12:13:50.613Z,3.30
2018-06-30T12:16:19.455Z,3.45
2018-06-30T12:18:47.965Z,3.20
2018-06-30T12:21:16.550Z,2.87
2018-06-30T12:23:45.787Z,3.52
2018-06-30T12:26:14.419Z,2.77
2018-06-30T12:28:43.133Z,3.33
2018-06-30T12:31:11.630Z,3.37
2018-06-30T12:33:40.133Z,3.35
2018-06-30T12:36:08.698Z,3.05
2018-06-30T12:38:37.350Z,3.37
2018-06-30T12:41:05.977Z,2.95
2018-06-30T12:43:34.675Z,3.37
2018-06-30T12:46:03.348Z,3.60
2018-06-30T12:48:32.005Z,3.45
2018-06-30T12:51:00.566Z,3.27
2018-06-30T12:53:29.070Z,3.15
2018-06-30T12:55:58.451Z,3.45
2018-06-30T12:58:26.973Z,3.40
2018-06-30T13:00:55.525Z,3.58
2018-06-30T13:03:24.047Z,3.45
2018-06-30T13:05:52.569Z,3.47
2018-06-30T13:08:21.208Z,3.87
2018-06-30T13:10:49.756Z,3.45
2018-06-30T13:13:18.278Z,3.52
2018-06-30T13:15:47.103Z,3.67
2018-06-30T13:18:15.714Z,3.33
2018-06-30T13:20:44.177Z,3.08
2018-06-30T13:23:12.896Z,2.62
2018-06-30T13:25:42.142Z,3.75
2018-06-30T13:28:10.694Z,3.58
2018-06-30T13:30:39.290Z,3.47
2018-06-30T13:33:07.857Z,3.50
2018-06-30T13:35:36.452Z,3.42
2018-06-30T13:38:05.194Z,3.75
2018-06-30T13:40:33.712Z,3.42
2018-06-30T13:43:03.067Z,3.20
2018-06-30T13:45:33.172Z,3.05
2018-06-30T13:48:01.857Z,3.70
2018-06-30T13:50:30.535Z,3.45
2018-06-30T13:52:59.813Z,3.02
2018-06-30T13:55:28.515Z,3.70
2018-06-30T13:57:57.053Z,3.83
2018-06-30T14:00:25.887Z,3.55
2018-06-30T14:02:54.583Z,3.12
2018-06-30T14:05:23.113Z,3.37
2018-06-30T14:07:51.780Z,4.15
2018-06-30T14:10:20.343Z,4.60
2018-06-30T14:12:48.888Z,4.03
2018-06-30T14:15:17.490Z,3.60
2018-06-30T14:17:46.078Z,3.05
2018-06-30T14:20:15.588Z,3.30
2018-06-30T14:22:44.126Z,3.37
2018-06-30T14:25:15.654Z,3.30
2018-06-30T14:27:44.371Z,2.45
2018-06-30T14:30:13.352Z,2.80
2018-06-30T14:32:42.282Z,3.75
2018-06-30T14:35:10.944Z,4.22
2018-06-30T14:37:39.961Z,4.20
2018-06-30T14:40:09.429Z,3.60
2018-06-30T14:42:37.993Z,3.40
2018-06-30T14:45:06.537Z,3.85
2018-06-30T14:47:35.363Z,3.50
2018-06-30T14:50:04.007Z,4.00
2018-06-30T14:52:33.269Z,3.40
2018-06-30T14:55:02.584Z,4.00
2018-06-30T14:57:31.269Z,3.45
2018-06-30T15:00:00.538Z,4.30
2018-06-30T15:02:29.085Z,3.62
2018-06-30T15:04:58.427Z,3.58
2018-06-30T15:07:27.798Z,3.60
2018-06-30T15:09:56.322Z,4.35
2018-06-30T15:12:24.893Z,3.85
2018-06-30T15:14:53.529Z,3.50
2018-06-30T15:17:22.076Z,4.33
2018-06-30T15:19:50.767Z,4.78
2018-06-30T15:22:19.590Z,4.05
2018-06-30T15:24:48.306Z,4.53
2018-06-30T15:27:17.298Z,4.10
2018-06-30T15:29:45.926Z,3.90
2018-06-30T15:32:14.795Z,3.80
2018-06-30T15:34:43.482Z,4.20
2018-06-30T15:37:12.085Z,3.83
2018-06-30T15:39:40.607Z,4.50
2018-06-30T15:42:09.145Z,3.70
2018-06-30T15:44:37.802Z,3.83
2018-06-30T15:47:06.373Z,4.37
2018-06-30T15:49:34.928Z,3.83
2018-06-30T15:52:03.683Z,4.00
2018-06-30T15:54:32.322Z,3.90
2018-06-30T15:57:00.830Z,3.45
2018-06-30T15:59:29.469Z,3.95
2018-06-30T16:01:58.162Z,4.33
2018-06-30T16:04:26.863Z,4.42
2018-06-30T16:06:55.473Z,3.77
2018-06-30T16:09:24.710Z,4.05
2018-06-30T16:11:54.054Z,3.87
2018-06-30T16:14:22.656Z,4.28
2018-06-30T16:16:51.989Z,3.70
2018-06-30T16:19:20.545Z,4.37
2018-06-30T16:21:49.107Z,4.15
2018-06-30T16:24:17.762Z,3.55
2018-06-30T16:26:46.346Z,4.08
2018-06-30T16:29:14.869Z,3.95
2018-06-30T16:31:43.483Z,3.90
2018-06-30T16:34:12.074Z,3.65
2018-06-30T16:36:40.618Z,4.22
2018-06-30T16:39:10.497Z,3.85
2018-06-30T16:41:39.020Z,3.70
2018-06-30T16:44:07.770Z,3.83
2018-06-30T16:46:36.896Z,3.50
2018-06-30T16:49:06.354Z,4.17
2018-06-30T16:51:35.173Z,4.08
2018-06-30T16:54:04.694Z,4.28
2018-06-30T16:56:33.240Z,6.67
2018-06-30T16:59:01.760Z,5.55
2018-06-30T17:01:30.341Z,5.55
2018-06-30T17:03:58.858Z,5.55
2018-06-30T17:06:27.457Z,4.97
2018-06-30T17:08:56.046Z,5.00
2018-06-30T17:11:24.616Z,4.42
2018-06-30T17:13:53.116Z,4.92
2018-06-30T17:16:21.624Z,4.47
2018-06-30T17:18:50.306Z,5.37
2018-06-30T17:21:18.810Z,4.95
2018-06-30T17:23:47.393Z,4.97
2018-06-30T17:26:16.119Z,4.75
2018-06-30T17:28:44.640Z,4.65
2018-06-30T17:31:13.148Z,4.67
2018-06-30T17:33:41.726Z,6.85
2018-06-30T17:36:10.318Z,4.50
2018-06-30T17:38:38.828Z,4.85
2018-06-30T17:41:07.440Z,4.22
2018-06-30T17:43:36.498Z,4.03
2018-06-30T17:46:05.061Z,4.50
2018-06-30T17:48:33.640Z,4.05
2018-06-30T17:51:02.276Z,3.62
2018-06-30T17:53:31.447Z,4.58
2018-06-30T17:55:59.920Z,3.85
2018-06-30T17:58:28.417Z,4.33
2018-06-30T18:00:56.984Z,4.20
2018-06-30T18:03:26.439Z,4.20
2018-06-30T18:05:55.634Z,4.20
2018-06-30T18:08:24.561Z,3.90
2018-06-30T18:10:53.054Z,4.20
2018-06-30T18:13:22.267Z,3.62
2018-06-30T18:15:50.905Z,3.67
2018-06-30T18:18:19.518Z,4.03
2018-06-30T18:20:48.877Z,3.67
2018-06-30T18:23:17.421Z,3.50
2018-06-30T18:25:46.154Z,4.35
2018-06-30T18:28:14.857Z,3.85
2018-06-30T18:30:43.440Z,4.10
2018-06-30T18:33:11.956Z,3.98
2018-06-30T18:35:40.678Z,4.03
2018-06-30T18:38:09.384Z,3.87
2018-06-30T18:40:37.902Z,3.90
2018-06-30T18:43:06.512Z,4.08
2018-06-30T18:45:35.083Z,4.17
2018-06-30T18:48:03.639Z,3.72
2018-06-30T18:50:32.325Z,4.72
2018-06-30T18:53:00.851Z,4.00
2018-06-30T18:55:29.434Z,4.12
2018-06-30T18:57:58.368Z,4.03
2018-06-30T19:00:27.594Z,3.98
2018-06-30T19:02:56.963Z,3.92
2018-06-30T19:05:25.634Z,3.37
2018-06-30T19:07:55.369Z,3.60
2018-06-30T19:10:24.571Z,3.87
2018-06-30T19:12:52.997Z,4.05
2018-06-30T19:15:21.551Z,3.87
2018-06-30T19:17:50.809Z,3.62
2018-06-30T19:20:19.493Z,3.40
2018-06-30T19:22:48.127Z,3.37
2018-06-30T19:25:17.389Z,3.33
2018-06-30T19:27:45.921Z,2.83
2018-06-30T19:30:14.464Z,2.90
2018-06-30T19:32:42.968Z,2.37
2018-06-30T19:35:11.576Z,2.73
2018-06-30T19:37:40.145Z,2.30
2018-06-30T19:40:09.091Z,2.43
2018-06-30T19:42:37.602Z,2.37
2018-06-30T19:45:06.399Z,1.83
2018-06-30T19:47:35.712Z,1.43
2018-06-30T19:50:04.369Z,1.63
2018-06-30T19:52:33.446Z,1.30
2018-06-30T19:55:02.044Z,1.10
2018-06-30T19:57:30.745Z,1.00
2018-06-30T19:59:59.285Z,1.50
2018-06-30T20:02:27.829Z,1.57
2018-06-30T20:04:56.380Z,1.03
2018-06-30T20:07:24.906Z,1.20
2018-06-30T20:09:59.990Z,1.00
2018-06-30T20:12:28.484Z,0.90
2018-06-30T20:14:57.036Z,1.10
2018-06-30T20:17:25.608Z,1.30
2018-06-30T20:19:54.129Z,1.17
2018-06-30T20:22:22.667Z,1.20
2018-06-30T20:24:51.291Z,0.90
2018-06-30T20:27:19.798Z,0.77
2018-06-30T20:29:48.347Z,0.67
2018-06-30T20:32:17.065Z,0.90
2018-06-30T20:34:45.597Z,1.10
2018-06-30T20:37:14.242Z,1.00
2018-06-30T20:39:42.903Z,0.67
2018-06-30T20:42:12.077Z,0.70
2018-06-30T20:44:40.605Z,1.00
2018-06-30T20:47:09.271Z,1.10
2018-06-30T20:49:38.578Z,0.60
2018-06-30T20:52:07.336Z,0.90
2018-06-30T20:54:35.854Z,1.10
2018-06-30T20:57:04.385Z,1.10
2018-06-30T20:59:32.974Z,0.90
2018-06-30T21:02:01.498Z,0.70
2018-06-30T21:04:30.119Z,0.87
2018-06-30T21:06:58.703Z,1.03
2018-06-30T21:09:27.244Z,0.60
2018-06-30T21:11:55.809Z,0.53
2018-06-30T21:14:24.361Z,0.57
2018-06-30T21:16:52.886Z,1.00
2018-06-30T21:19:21.640Z,0.90
2018-06-30T21:21:51.002Z,0.60
2018-06-30T21:24:19.712Z,0.80
2018-06-30T21:26:48.230Z,0.70
2018-06-30T21:29:17.706Z,0.80
2018-06-30T21:31:46.417Z,0.60
2018-06-30T21:34:14.969Z,0.50
2018-06-30T21:36:43.451Z,0.80
2018-06-30T21:39:13.270Z,1.70
2018-06-30T21:41:41.864Z,1.47
2018-06-30T21:44:10.551Z,1.57
2018-06-30T21:46:39.142Z,2.00
2018-06-30T21:49:07.703Z,3.30
2018-06-30T21:51:36.293Z,2.53
2018-06-30T21:54:04.916Z,2.00
2018-06-30T21:56:33.415Z,2.10
2018-06-30T21:59:01.915Z,1.87
2018-06-30T22:01:30.563Z,1.43
2018-06-30T22:03:59.736Z,1.30
2018-06-30T22:06:28.263Z,1.50
2018-06-30T22:08:56.924Z,1.53
2018-06-30T22:11:25.449Z,1.30
2018-06-30T22:13:54.085Z,1.10
2018-06-30T22:16:22.629Z,0.80
2018-06-30T22:18:51.218Z,0.77
2018-06-30T22:21:19.786Z,0.77
2018-06-30T22:23:48.339Z,0.90
2018-06-30T22:26:16.993Z,0.70
2018-06-30T22:28:45.501Z,1.03
2018-06-30T22:31:14.036Z,1.10
2018-06-30T22:33:42.570Z,1.07
2018-06-30T22:36:11.234Z,1.23
2018-06-30T22:38:39.801Z,1.00
2018-06-30T22:41:08.378Z,0.90
2018-06-30T22:43:37.586Z,0.80
2018-06-30T22:46:06.797Z,0.60
2018-06-30T22:48:35.345Z,0.70
2018-06-30T22:51:04.086Z,0.80
2018-06-30T22:53:32.588Z,0.70
2018-06-30T22:56:01.802Z,0.60
2018-06-30T22:58:30.314Z,0.60
2018-06-30T23:00:58.882Z,0.57
2018-06-30T23:03:27.440Z,1.43
2018-06-30T23:05:55.949Z,3.93
2018-06-30T23:08:24.558Z,3.37
2018-06-30T23:10:53.789Z,4.50
2018-06-30T23:13:22.303Z,2.00
2018-06-30T23:15:50.848Z,1.00
2018-06-30T23:18:19.374Z,1.07
2018-06-30T23:20:47.955Z,2.10
2018-06-30T23:23:17.305Z,6.93
2018-06-30T23:25:45.785Z,4.23
2018-06-30T23:28:14.873Z,1.60
2018-06-30T23:30:43.399Z,0.80
2018-06-30T23:33:11.898Z,1.10
2018-06-30T23:35:40.389Z,0.80
2018-06-30T23:38:09.021Z,0.90
2018-06-30T23:40:37.508Z,0.87
2018-06-30T23:43:06.041Z,0.90
2018-06-30T23:45:35.466Z,0.70
2018-06-30T23:48:04.012Z,0.80
2018-06-30T23:50:32.533Z,0.80
2018-06-30T23:53:01.108Z,0.67
2018-06-30T23:55:29.592Z,0.80
2018-06-30T23:57:58.195Z,0.80
